createdAt,value
2023-07-27T00:01:14.412Z,101003.88
2023-07-27T00:03:43.458Z,101001.75
2023-07-27T00:06:13.417Z,101001.94
2023-07-27T00:08:42.341Z,100994.81
2023-07-27T00:11:11.206Z,100991.25
2023-07-27T00:13:42.576Z,100992.06
2023-07-27T00:16:15.621Z,100986.38
2023-07-27T00:18:44.575Z,100992.59
2023-07-27T00:21:16.786Z,100952.19
2023-07-27T00:23:46.752Z,100965.22
2023-07-27T00:26:15.982Z,100970.03
2023-07-27T00:28:46.327Z,100960.22
2023-07-27T00:31:16.304Z,100962.69
2023-07-27T00:33:46.230Z,100967.84
2023-07-27T00:36:16.533Z,100966.56
2023-07-27T00:38:48.240Z,100967.41
2023-07-27T00:41:18.280Z,100973.47
2023-07-27T00:43:48.768Z,100964.06
2023-07-27T00:46:19.022Z,100970.94
2023-07-27T00:48:48.169Z,100961.78
2023-07-27T00:51:18.154Z,100953.63
2023-07-27T00:53:47.611Z,100960.72
2023-07-27T00:56:17.361Z,100956.75
2023-07-27T00:58:48.932Z,100950.69
2023-07-27T01:01:19.573Z,100951.13
2023-07-27T01:03:49.946Z,100954.91
2023-07-27T01:06:20.105Z,100941.38
2023-07-27T01:08:50.236Z,100945.31
2023-07-27T01:11:26.806Z,100945.88
2023-07-27T01:14:07.244Z,100931.22
2023-07-27T01:16:42.034Z,100942.94
2023-07-27T01:19:28.795Z,100949.78
2023-07-27T01:22:18.604Z,100945.75
2023-07-27T01:25:18.721Z,100942.78
2023-07-27T01:27:58.890Z,100913.00
2023-07-27T01:30:59.348Z,100945.25
2023-07-27T01:33:40.330Z,100915.06
2023-07-27T01:36:13.609Z,100938.97
2023-07-27T01:38:52.852Z,100938.31
2023-07-27T01:41:25.045Z,100934.72
2023-07-27T01:43:59.108Z,100932.16
2023-07-27T01:46:33.424Z,100947.59
2023-07-27T01:49:05.373Z,100948.38
2023-07-27T01:51:36.220Z,100950.19
2023-07-27T01:54:11.048Z,100945.72
2023-07-27T01:56:40.297Z,100810.72
2023-07-27T01:59:10.258Z,100940.53
2023-07-27T02:01:44.759Z,100937.00
2023-07-27T02:04:16.600Z,100936.72
2023-07-27T02:06:52.084Z,100930.06
2023-07-27T02:09:22.429Z,100940.81
2023-07-27T02:11:58.442Z,100931.59
2023-07-27T02:14:33.120Z,100894.31
2023-07-27T02:17:14.794Z,100859.78
2023-07-27T02:19:46.911Z,100940.78
2023-07-27T02:22:18.242Z,100924.66
2023-07-27T02:24:47.598Z,100926.25
2023-07-27T02:27:17.798Z,100931.75
2023-07-27T02:29:49.048Z,100933.19
2023-07-27T02:32:20.577Z,100932.94
2023-07-27T02:34:49.629Z,100920.78
2023-07-27T02:37:25.771Z,100919.53
2023-07-27T02:40:23.188Z,100920.44
2023-07-27T02:42:57.289Z,100920.38
2023-07-27T02:45:26.385Z,100919.47
2023-07-27T02:48:03.830Z,100917.81
2023-07-27T02:50:33.450Z,100919.84
2023-07-27T02:53:09.291Z,100923.25
2023-07-27T02:55:44.591Z,100930.72
2023-07-27T02:58:13.656Z,100909.13
2023-07-27T03:00:42.783Z,100933.38
2023-07-27T03:03:15.286Z,100927.78
2023-07-27T03:05:45.626Z,100934.78
2023-07-27T03:08:19.209Z,100929.66
2023-07-27T03:10:51.360Z,100926.22
2023-07-27T03:13:48.833Z,100925.97
2023-07-27T03:16:19.710Z,100929.78
2023-07-27T03:18:52.068Z,100929.03
2023-07-27T03:21:21.928Z,100891.75
2023-07-27T03:23:51.511Z,100925.31
2023-07-27T03:26:22.697Z,100930.53
2023-07-27T03:28:51.474Z,100926.50
2023-07-27T03:31:25.298Z,100923.88
2023-07-27T03:33:56.959Z,100936.00
2023-07-27T03:36:26.557Z,100923.22
2023-07-27T03:38:57.719Z,100923.59
2023-07-27T03:41:28.639Z,100923.97
2023-07-27T03:43:58.022Z,100927.25
2023-07-27T03:46:26.899Z,100931.06
2023-07-27T03:48:57.702Z,100925.00
2023-07-27T03:51:26.677Z,100936.94
2023-07-27T03:54:00.187Z,100938.72
2023-07-27T03:56:39.203Z,100949.22
2023-07-27T03:59:08.373Z,100946.41
2023-07-27T04:01:39.187Z,100943.91
2023-07-27T04:04:13.760Z,100944.63
2023-07-27T04:06:43.723Z,100944.91
2023-07-27T04:09:13.636Z,100943.09
2023-07-27T04:11:50.503Z,100950.44
2023-07-27T04:14:33.525Z,100936.41
2023-07-27T04:17:04.400Z,100948.91
2023-07-27T04:19:37.446Z,100948.91
2023-07-27T04:22:06.801Z,100951.09
2023-07-27T04:24:36.800Z,100947.91
2023-07-27T04:27:11.815Z,100945.38
2023-07-27T04:29:41.756Z,100949.94
2023-07-27T04:32:11.027Z,100949.25
2023-07-27T04:34:43.242Z,100951.47
2023-07-27T04:37:12.141Z,100947.19
2023-07-27T04:39:42.910Z,100946.88
2023-07-27T04:42:21.369Z,100943.84
2023-07-27T04:44:52.304Z,100958.38
2023-07-27T04:47:25.067Z,100950.75
2023-07-27T04:49:56.464Z,100950.75
2023-07-27T04:52:27.287Z,100957.13
2023-07-27T04:54:56.084Z,100953.34
2023-07-27T04:57:24.975Z,100953.81
2023-07-27T04:59:53.898Z,100958.38
2023-07-27T05:02:22.836Z,100961.56
2023-07-27T05:04:52.869Z,100963.22
2023-07-27T05:07:23.648Z,100962.22
2023-07-27T05:09:52.425Z,100967.91
2023-07-27T05:12:21.957Z,100968.19
2023-07-27T05:14:52.187Z,100962.91
2023-07-27T05:17:21.034Z,100961.28
2023-07-27T05:19:50.100Z,100955.91
2023-07-27T05:22:18.920Z,100962.47
2023-07-27T05:24:49.358Z,100963.25
2023-07-27T05:27:18.104Z,100970.91
2023-07-27T05:29:46.919Z,100976.41
2023-07-27T05:32:15.824Z,100976.34
2023-07-27T05:34:45.593Z,100975.84
2023-07-27T05:37:15.043Z,100970.81
2023-07-27T05:39:43.973Z,100973.19
2023-07-27T05:42:14.227Z,100975.16
2023-07-27T05:44:43.983Z,100976.66
2023-07-27T05:47:12.946Z,100980.34
2023-07-27T05:49:41.886Z,100975.97
2023-07-27T05:52:10.797Z,100974.22
2023-07-27T05:54:39.612Z,100975.28
2023-07-27T05:57:08.380Z,100973.47
2023-07-27T05:59:40.188Z,100972.69
2023-07-27T06:02:10.684Z,100979.03
2023-07-27T06:04:39.514Z,100976.66
2023-07-27T06:07:08.706Z,100973.16
2023-07-27T06:09:38.251Z,100969.03
2023-07-27T06:12:12.862Z,100968.84
2023-07-27T06:14:43.265Z,100967.50
2023-07-27T06:17:12.027Z,100960.00
2023-07-27T06:19:40.659Z,100956.00
2023-07-27T06:22:09.386Z,100957.81
2023-07-27T06:24:38.227Z,100950.56
2023-07-27T06:27:08.246Z,100960.25
2023-07-27T06:29:37.082Z,100952.66
2023-07-27T06:32:08.306Z,100958.78
2023-07-27T06:34:37.093Z,100952.16
2023-07-27T06:37:07.175Z,100953.72
2023-07-27T06:39:36.024Z,100949.81
2023-07-27T06:42:04.994Z,100951.94
2023-07-27T06:44:35.743Z,100941.69
2023-07-27T06:47:06.049Z,100945.75
2023-07-27T06:49:37.488Z,100936.13
2023-07-27T06:52:10.474Z,100937.66
2023-07-27T06:54:41.083Z,100938.53
2023-07-27T06:57:11.594Z,100936.66
2023-07-27T06:59:40.361Z,100938.28
2023-07-27T07:02:09.426Z,100934.69
2023-07-27T07:04:40.666Z,100942.88
2023-07-27T07:07:10.183Z,100935.53
2023-07-27T07:09:38.950Z,100931.00
2023-07-27T07:12:08.306Z,100929.41
2023-07-27T07:14:37.195Z,100930.31
2023-07-27T07:17:07.332Z,100927.97
2023-07-27T07:19:36.084Z,100929.63
2023-07-27T07:22:07.278Z,100932.84
2023-07-27T07:24:36.102Z,100936.28
2023-07-27T07:27:05.237Z,100933.53
2023-07-27T07:29:34.050Z,100935.03
2023-07-27T07:32:02.853Z,100931.88
2023-07-27T07:34:34.982Z,100932.50
2023-07-27T07:37:05.758Z,100930.03
2023-07-27T07:39:34.544Z,100926.66
2023-07-27T07:42:03.376Z,100924.50
2023-07-27T07:44:32.230Z,100925.59
2023-07-27T07:47:01.013Z,100923.19
2023-07-27T07:49:29.813Z,100918.13
2023-07-27T07:51:58.590Z,100921.47
2023-07-27T07:54:30.234Z,100918.84
2023-07-27T07:56:59.088Z,100914.19
2023-07-27T07:59:27.852Z,100917.03
2023-07-27T08:01:56.782Z,100913.69
2023-07-27T08:04:25.582Z,100916.31
2023-07-27T08:06:54.349Z,100913.59
2023-07-27T08:09:23.137Z,100911.22
2023-07-27T08:11:53.822Z,100910.22
2023-07-27T08:14:22.949Z,100920.06
2023-07-27T08:16:51.791Z,100913.88
2023-07-27T08:19:20.740Z,100912.59
2023-07-27T08:21:49.503Z,100901.69
2023-07-27T08:24:18.957Z,100904.31
2023-07-27T08:26:48.612Z,100903.28
2023-07-27T08:29:18.861Z,100900.63
2023-07-27T08:31:47.692Z,100908.94
2023-07-27T08:34:16.481Z,100902.34
2023-07-27T08:36:48.651Z,100903.47
2023-07-27T08:39:17.783Z,100901.81
2023-07-27T08:41:46.759Z,100906.78
2023-07-27T08:44:16.829Z,100852.16
2023-07-27T08:46:48.296Z,100896.28
2023-07-27T08:49:17.749Z,100895.25
2023-07-27T08:51:47.153Z,100894.22
2023-07-27T08:54:16.135Z,100889.00
2023-07-27T08:56:44.892Z,100887.38
2023-07-27T08:59:14.120Z,100876.03
2023-07-27T09:01:43.025Z,100881.84
2023-07-27T09:04:14.234Z,100876.66
2023-07-27T09:06:46.182Z,100875.53
2023-07-27T09:09:19.643Z,100871.13
2023-07-27T09:11:48.621Z,100879.72
2023-07-27T09:14:19.910Z,100877.22
2023-07-27T09:16:50.493Z,100872.53
2023-07-27T09:19:21.453Z,100881.94
2023-07-27T09:21:51.719Z,100873.91
2023-07-27T09:24:20.660Z,100870.88
2023-07-27T09:26:51.047Z,100811.53
2023-07-27T09:29:21.905Z,100868.66
2023-07-27T09:31:52.020Z,100852.06
2023-07-27T09:34:23.300Z,100852.81
2023-07-27T09:36:53.700Z,100864.69
2023-07-27T09:39:22.777Z,100862.94
2023-07-27T09:41:53.351Z,100855.94
2023-07-27T09:44:22.847Z,100851.16
2023-07-27T09:46:51.659Z,100839.75
2023-07-27T09:49:22.477Z,100852.94
2023-07-27T09:51:53.104Z,100849.56
2023-07-27T09:54:23.696Z,100852.19
2023-07-27T09:56:53.640Z,100857.94
2023-07-27T09:59:25.685Z,100850.22
2023-07-27T10:01:57.826Z,100849.44
2023-07-27T10:04:28.119Z,100846.81
2023-07-27T10:06:59.943Z,100845.00
2023-07-27T10:09:28.646Z,100843.00
2023-07-27T10:11:58.396Z,100835.44
2023-07-27T10:14:28.549Z,100850.41
2023-07-27T10:17:02.320Z,100843.59
2023-07-27T10:19:49.306Z,100845.25
2023-07-27T10:22:21.165Z,100844.63
2023-07-27T10:24:54.648Z,100838.81
2023-07-27T10:27:26.156Z,100841.88
2023-07-27T10:30:17.822Z,100830.66
2023-07-27T10:33:17.028Z,100828.84
2023-07-27T10:36:06.309Z,100826.97
2023-07-27T10:38:35.519Z,100834.53
2023-07-27T10:41:17.169Z,100837.75
2023-07-27T10:44:19.617Z,100832.22
2023-07-27T10:46:57.777Z,100772.69
2023-07-27T10:49:28.089Z,100822.66
2023-07-27T10:52:00.332Z,100810.91
2023-07-27T10:54:29.629Z,100812.19
2023-07-27T10:56:59.299Z,100814.59
2023-07-27T10:59:30.877Z,100815.13
2023-07-27T11:01:59.919Z,100809.72
2023-07-27T11:04:29.141Z,100813.78
2023-07-27T11:06:59.375Z,100806.06
2023-07-27T11:09:34.303Z,100807.34
2023-07-27T11:12:03.539Z,100798.44
2023-07-27T11:14:32.642Z,100797.22
2023-07-27T11:17:01.724Z,100801.75
2023-07-27T11:19:30.566Z,100795.44
2023-07-27T11:22:01.740Z,100782.88
2023-07-27T11:24:31.945Z,100786.69
2023-07-27T11:27:01.736Z,100785.91
2023-07-27T11:29:30.637Z,100784.63
2023-07-27T11:32:01.336Z,100773.84
2023-07-27T11:34:32.268Z,100776.44
2023-07-27T11:37:03.742Z,100771.44
2023-07-27T11:39:33.756Z,100774.41
2023-07-27T11:42:11.824Z,100753.56
2023-07-27T11:44:41.612Z,100763.38
2023-07-27T11:47:10.532Z,100756.38
2023-07-27T11:49:40.021Z,100757.38
2023-07-27T11:52:11.360Z,100758.75
2023-07-27T11:54:42.574Z,100752.91
2023-07-27T11:57:17.275Z,100769.34
2023-07-27T12:00:01.164Z,100760.19
2023-07-27T12:02:34.629Z,100758.31
2023-07-27T12:05:03.942Z,100759.53
2023-07-27T12:12:49.916Z,100751.19
2023-07-27T12:15:30.404Z,100751.50
2023-07-27T12:18:00.518Z,100760.22
2023-07-27T12:30:44.097Z,100758.38
2023-07-27T12:33:13.413Z,100760.06
2023-07-27T12:35:42.401Z,100758.88
2023-07-27T12:43:17.197Z,100757.44
2023-07-27T12:45:46.040Z,100756.31
2023-07-27T12:48:14.950Z,100749.72
2023-07-27T12:50:43.737Z,100738.41
2023-07-27T12:53:15.046Z,100742.19
2023-07-27T12:55:44.015Z,100734.09
2023-07-27T12:58:12.855Z,100738.63
2023-07-27T13:00:41.821Z,100734.69
2023-07-27T13:03:12.677Z,100733.28
2023-07-27T13:05:41.689Z,100724.66
2023-07-27T13:08:10.453Z,100730.75
2023-07-27T13:10:40.862Z,100724.47
2023-07-27T13:13:09.730Z,100726.69
2023-07-27T13:15:38.878Z,100719.91
2023-07-27T13:18:07.904Z,100721.97
2023-07-27T13:20:37.722Z,100714.06
2023-07-27T13:23:06.884Z,100710.91
2023-07-27T13:25:38.529Z,100712.56
2023-07-27T13:28:08.986Z,100703.91
2023-07-27T13:30:39.075Z,100703.69
2023-07-27T13:33:08.106Z,100709.44
2023-07-27T13:35:39.194Z,100713.59
2023-07-27T13:38:08.155Z,100706.16
2023-07-27T13:40:37.079Z,100706.63
2023-07-27T13:43:05.908Z,100702.13
2023-07-27T13:45:36.127Z,100703.41
2023-07-27T13:48:09.810Z,100695.44
2023-07-27T13:50:39.449Z,100702.81
2023-07-27T13:53:11.394Z,100698.72
2023-07-27T13:55:40.332Z,100702.94
2023-07-27T13:58:09.332Z,100698.34
2023-07-27T14:00:39.868Z,100694.66
2023-07-27T14:03:08.859Z,100707.28
2023-07-27T14:05:38.136Z,100702.34
2023-07-27T14:08:07.549Z,100691.00
2023-07-27T14:10:36.464Z,100690.59
2023-07-27T14:13:06.103Z,100693.78
2023-07-27T14:15:35.044Z,100682.97
2023-07-27T14:18:05.591Z,100676.09
2023-07-27T14:20:35.728Z,100685.53
2023-07-27T14:23:04.789Z,100678.97
2023-07-27T14:25:34.820Z,100675.06
2023-07-27T14:28:03.815Z,100683.91
2023-07-27T14:30:32.792Z,100683.31
2023-07-27T14:33:01.656Z,100679.09
2023-07-27T14:35:31.938Z,100671.09
2023-07-27T14:38:00.839Z,100669.72
2023-07-27T14:43:01.392Z,100668.28
2023-07-27T14:45:30.870Z,100669.94
2023-07-27T14:47:59.837Z,100670.50
2023-07-27T14:53:03.119Z,100658.38
2023-07-27T14:55:31.954Z,100660.06
2023-07-27T14:58:00.872Z,100662.38
2023-07-27T15:05:33.652Z,100659.28
2023-07-27T15:08:05.037Z,100651.84
2023-07-27T15:10:37.896Z,100641.63
2023-07-27T15:13:08.209Z,100634.59
2023-07-27T15:15:38.068Z,100640.25
2023-07-27T15:18:08.948Z,100644.44
2023-07-27T15:20:42.104Z,100636.16
2023-07-27T15:23:13.549Z,100641.16
2023-07-27T15:25:42.493Z,100628.72
2023-07-27T15:28:11.313Z,100633.69
2023-07-27T15:30:40.412Z,100630.38
2023-07-27T15:33:09.393Z,100627.16
2023-07-27T15:35:39.550Z,100616.41
2023-07-27T15:38:08.477Z,100626.66
2023-07-27T15:40:38.821Z,100622.25
2023-07-27T15:43:08.229Z,100610.09
2023-07-27T15:45:37.102Z,100602.94
2023-07-27T15:48:07.750Z,100611.50
2023-07-27T15:50:36.779Z,100616.53
2023-07-27T15:53:06.595Z,100606.59
2023-07-27T15:55:38.757Z,100607.97
2023-07-27T15:58:08.960Z,100593.66
2023-07-27T16:00:40.784Z,100581.81
2023-07-27T16:03:12.718Z,100607.22
2023-07-27T16:05:41.656Z,100611.66
2023-07-27T16:08:10.382Z,100607.50
2023-07-27T16:10:43.858Z,100605.59
2023-07-27T16:13:13.206Z,100609.19
2023-07-27T16:15:42.041Z,100610.88
2023-07-27T16:18:12.615Z,100612.22
2023-07-27T16:20:44.414Z,100614.72
2023-07-27T16:23:14.793Z,100608.63
2023-07-27T16:25:45.787Z,100610.03
2023-07-27T16:28:15.679Z,100627.66
2023-07-27T16:30:45.289Z,100634.56
2023-07-27T16:33:15.204Z,100635.66
2023-07-27T16:35:44.112Z,100643.94
2023-07-27T16:38:12.915Z,100647.53
2023-07-27T16:40:42.064Z,100652.22
2023-07-27T16:43:12.315Z,100659.34
2023-07-27T16:45:41.197Z,100648.63
2023-07-27T16:48:10.305Z,100646.69
2023-07-27T16:50:39.146Z,100655.25
2023-07-27T16:53:08.018Z,100646.41
2023-07-27T16:55:38.193Z,100632.03
2023-07-27T16:58:07.157Z,100652.69
2023-07-27T17:00:38.641Z,100652.13
2023-07-27T17:03:07.786Z,100663.66
2023-07-27T17:05:40.314Z,100655.63
2023-07-27T17:08:10.887Z,100640.38
2023-07-27T17:10:39.867Z,100662.69
2023-07-27T17:13:08.800Z,100672.78
2023-07-27T17:15:39.761Z,100676.81
2023-07-27T17:18:08.708Z,100672.56
2023-07-27T17:20:37.867Z,100660.94
2023-07-27T17:23:06.833Z,100669.63
2023-07-27T17:25:35.833Z,100669.25
2023-07-27T17:28:04.739Z,100679.31
2023-07-27T17:30:33.703Z,100673.38
2023-07-27T17:33:04.123Z,100673.94
2023-07-27T17:35:33.056Z,100668.13
2023-07-27T17:38:01.950Z,100667.56
2023-07-27T17:40:30.790Z,100662.91
2023-07-27T17:42:59.662Z,100658.50
2023-07-27T17:45:28.441Z,100661.81
2023-07-27T17:47:57.288Z,100638.84
2023-07-27T17:50:27.648Z,100664.19
2023-07-27T17:52:57.505Z,100665.78
2023-07-27T17:55:26.426Z,100654.19
2023-07-27T17:57:56.050Z,100645.84
2023-07-27T18:00:25.045Z,100657.63
2023-07-27T18:02:55.137Z,100652.38
2023-07-27T18:05:24.068Z,100654.13
2023-07-27T18:07:54.412Z,100660.94
2023-07-27T18:10:23.311Z,100649.84
2023-07-27T18:12:52.134Z,100652.84
2023-07-27T18:15:21.103Z,100662.41
2023-07-27T18:17:50.008Z,100662.59
2023-07-27T18:20:19.026Z,100668.03
2023-07-27T18:22:47.925Z,100669.03
2023-07-27T18:25:18.296Z,100672.03
2023-07-27T18:27:47.212Z,100660.75
2023-07-27T18:30:16.282Z,100666.91
2023-07-27T18:32:45.275Z,100669.91
2023-07-27T18:35:16.220Z,100667.44
2023-07-27T18:37:45.310Z,100663.59
2023-07-27T18:40:15.378Z,100661.38
2023-07-27T18:42:46.790Z,100671.16
2023-07-27T18:45:15.848Z,100668.28
2023-07-27T18:47:45.260Z,100672.84
2023-07-27T18:50:14.064Z,100674.69
2023-07-27T18:52:43.984Z,100657.84
2023-07-27T18:55:12.808Z,100681.19
2023-07-27T18:57:41.678Z,100676.34
2023-07-27T19:00:13.752Z,100679.84
2023-07-27T19:02:42.753Z,100674.28
2023-07-27T19:05:11.605Z,100668.16
2023-07-27T19:07:40.405Z,100673.56
2023-07-27T19:10:10.889Z,100663.78
2023-07-27T19:12:39.820Z,100662.88
2023-07-27T19:15:10.274Z,100657.34
2023-07-27T19:17:40.586Z,100662.72
2023-07-27T19:20:11.198Z,100661.22
2023-07-27T19:22:40.068Z,100692.34
2023-07-27T19:25:10.678Z,100694.84
2023-07-27T19:27:39.680Z,100692.00
2023-07-27T19:30:09.735Z,100692.50
2023-07-27T19:32:40.746Z,100687.75
2023-07-27T19:35:10.505Z,100694.81
2023-07-27T19:37:39.338Z,100686.00
2023-07-27T19:40:10.111Z,100681.59
2023-07-27T19:42:39.004Z,100698.63
2023-07-27T19:45:08.951Z,100698.13
2023-07-27T19:47:37.821Z,100711.81
2023-07-27T19:50:18.558Z,100725.00
2023-07-27T19:52:51.382Z,100730.63
2023-07-27T19:55:21.349Z,100736.09
2023-07-27T19:57:51.201Z,100733.13
2023-07-27T20:00:20.312Z,100731.81
2023-07-27T20:02:49.793Z,100737.03
2023-07-27T20:05:20.119Z,100753.72
2023-07-27T20:07:49.266Z,100754.06
2023-07-27T20:10:18.130Z,100751.91
2023-07-27T20:12:46.886Z,100737.97
2023-07-27T20:15:15.712Z,100737.63
2023-07-27T20:17:45.662Z,100726.91
2023-07-27T20:20:15.073Z,100705.00
2023-07-27T20:22:45.323Z,100721.09
2023-07-27T20:25:14.672Z,100723.84
2023-07-27T20:27:43.654Z,100717.19
2023-07-27T20:30:13.039Z,100737.44
2023-07-27T20:32:43.595Z,100726.47
2023-07-27T20:35:12.977Z,100728.38
2023-07-27T20:37:41.818Z,100725.22
2023-07-27T20:40:13.254Z,100734.16
2023-07-27T20:42:42.135Z,100744.88
2023-07-27T20:45:11.577Z,100738.91
2023-07-27T20:47:40.496Z,100746.78
2023-07-27T20:50:12.014Z,100757.47
2023-07-27T20:52:40.892Z,100753.31
2023-07-27T20:55:11.813Z,100741.78
2023-07-27T20:57:40.665Z,100738.22
2023-07-27T21:00:10.525Z,100726.81
2023-07-27T21:02:39.489Z,100723.63
2023-07-27T21:05:10.367Z,100734.69
2023-07-27T21:07:39.282Z,100735.78
2023-07-27T21:10:09.700Z,100748.38
2023-07-27T21:12:39.993Z,100750.16
2023-07-27T21:15:09.791Z,100751.94
2023-07-27T21:17:38.732Z,100741.72
2023-07-27T21:20:10.596Z,100743.97
2023-07-27T21:22:39.447Z,100745.41
2023-07-27T21:25:08.808Z,100742.19
2023-07-27T21:27:37.616Z,100753.38
2023-07-27T21:30:09.316Z,100754.78
2023-07-27T21:32:38.234Z,100763.00
2023-07-27T21:35:08.051Z,100754.91
2023-07-27T21:37:37.147Z,100760.03
2023-07-27T21:40:13.567Z,100766.81
2023-07-27T21:42:43.157Z,100787.03
2023-07-27T21:45:13.585Z,100805.47
2023-07-27T21:47:42.557Z,100819.50
2023-07-27T21:50:12.299Z,100813.56
2023-07-27T21:52:41.152Z,100810.00
2023-07-27T21:55:10.877Z,100811.91
2023-07-27T21:57:39.656Z,100805.47
2023-07-27T22:00:10.454Z,100792.88
2023-07-27T22:02:40.717Z,100809.41
2023-07-27T22:05:09.753Z,100808.22
2023-07-27T22:07:38.686Z,100794.53
2023-07-27T22:10:08.807Z,100783.94
2023-07-27T22:12:39.103Z,100771.50
2023-07-27T22:15:09.061Z,100766.16
2023-07-27T22:17:37.887Z,100743.19
2023-07-27T22:20:10.669Z,100729.66
2023-07-27T22:22:39.536Z,100712.19
2023-07-27T22:25:09.788Z,100707.66
2023-07-27T22:27:38.779Z,100690.28
2023-07-27T22:30:08.740Z,100677.94
2023-07-27T22:32:37.792Z,100671.03
2023-07-27T22:35:08.481Z,100677.13
2023-07-27T22:37:38.286Z,100661.09
2023-07-27T22:40:08.205Z,100678.53
2023-07-27T22:42:38.187Z,100684.00
2023-07-27T22:45:07.726Z,100691.13
2023-07-27T22:47:36.706Z,100695.28
2023-07-27T22:50:08.013Z,100678.91
2023-07-27T22:52:38.387Z,100673.44
2023-07-27T22:55:08.164Z,100686.50
2023-07-27T22:57:40.751Z,100711.69
2023-07-27T23:00:10.971Z,100756.25
2023-07-27T23:02:39.903Z,100779.75
2023-07-27T23:05:11.203Z,100753.47
2023-07-27T23:07:41.680Z,100798.78
2023-07-27T23:10:10.978Z,100812.69
2023-07-27T23:12:39.760Z,100812.09
2023-07-27T23:15:09.283Z,100821.72
2023-07-27T23:17:38.256Z,100825.66
2023-07-27T23:20:09.189Z,100838.25
2023-07-27T23:22:38.102Z,100852.72
2023-07-27T23:25:09.172Z,100857.47
2023-07-27T23:27:38.632Z,100857.25
2023-07-27T23:30:08.457Z,100863.06
2023-07-27T23:32:37.682Z,100865.34
2023-07-27T23:35:07.296Z,100875.81
2023-07-27T23:37:36.044Z,100880.22
2023-07-27T23:40:08.458Z,100881.88
2023-07-27T23:42:38.208Z,100882.94
2023-07-27T23:45:08.365Z,100883.19
2023-07-27T23:47:38.323Z,100884.00
2023-07-27T23:50:07.995Z,100882.34
2023-07-27T23:52:36.881Z,100874.84
2023-07-27T23:55:07.805Z,100879.84
2023-07-27T23:57:36.654Z,100862.63
